Time;durP1;ratioP1;P1;durP2;ratioP2;P2;SDS_P1;SDS_P2;PMS_P1;PMS_P2;Temp;Humidity;BMP_temperature;BMP_pressure;BME280_temperature;BME280_humidity;BME280_pressure;Samples;Min_cycle;Max_cycle;Signal;HPM_P1;HPM_P2
2022/03/30 00:01:51;;;;;;;58.53;55.80;;;;;;;11.77;100.00;99064.06;5005696;28;20204;-81
2022/03/30 00:04:20;;;;;;;83.90;79.35;;;;;;;11.79;100.00;99080.78;5010517;28;20235;-81
2022/03/30 00:06:48;;;;;;;69.15;65.82;;;;;;;11.80;100.00;99071.94;5012962;28;20203;-81
2022/03/30 00:09:17;;;;;;;70.10;66.85;;;;;;;11.74;100.00;99068.50;5027395;28;20204;-81
2022/03/30 00:11:45;;;;;;;80.93;77.07;;;;;;;11.70;100.00;99080.91;5012214;28;20210;-80
2022/03/30 00:14:15;;;;;;;98.55;93.95;;;;;;;11.67;100.00;99074.75;5010738;28;20246;-81
2022/03/30 00:16:43;;;;;;;103.22;98.63;;;;;;;11.62;100.00;99061.59;5011599;28;20201;-81
2022/03/30 00:19:11;;;;;;;83.32;78.82;;;;;;;11.61;100.00;99065.16;5010499;28;20207;-81
2022/03/30 00:21:40;;;;;;;93.85;89.63;;;;;;;11.56;100.00;99061.72;5008134;28;20227;-80
2022/03/30 00:24:08;;;;;;;110.60;105.22;;;;;;;11.55;100.00;99075.84;5010301;28;20235;-81
2022/03/30 00:26:37;;;;;;;137.60;130.88;;;;;;;11.50;100.00;99083.88;5009082;28;20200;-80
2022/03/30 00:29:06;;;;;;;132.10;126.28;;;;;;;11.50;100.00;99090.94;5009801;28;20211;-80
2022/03/30 00:31:34;;;;;;;114.32;108.40;;;;;;;11.45;100.00;99084.84;5010185;28;20212;-80
2022/03/30 00:34:03;;;;;;;103.47;98.22;;;;;;;11.43;100.00;99089.28;5006956;28;20235;-81
2022/03/30 00:36:31;;;;;;;76.13;72.95;;;;;;;11.45;100.00;99088.38;5012991;28;20200;-81
2022/03/30 00:38:59;;;;;;;103.70;97.82;;;;;;;11.39;100.00;99075.22;5009120;28;20208;-81
2022/03/30 00:41:28;;;;;;;61.05;57.50;;;11.40;99.90;;;11.34;100.00;99077.06;5005401;28;20538;-81
2022/03/30 00:43:56;;;;;;;44.85;42.13;;;;;;;11.34;100.00;99089.44;5008557;28;20227;-80
2022/03/30 00:46:25;;;;;;;48.42;45.72;;;;;;;11.26;100.00;99089.53;5008336;28;20219;-80
2022/03/30 00:48:53;;;;;;;42.88;39.80;;;;;;;11.21;100.00;99083.44;5005101;28;20656;-80
2022/03/30 00:51:21;;;;;;;58.65;55.10;;;;;;;11.26;100.00;99068.38;5001504;28;20207;-80
2022/03/30 00:53:50;;;;;;;68.15;63.88;;;;;;;11.26;100.00;99062.22;5008765;28;20227;-80
2022/03/30 00:56:18;;;;;;;91.82;86.57;;;;;;;11.20;100.00;99081.69;4999034;28;20236;-81
2022/03/30 00:58:46;;;;;;;92.78;87.95;;;;;;;11.15;100.00;99092.34;4991536;28;20577;-81
2022/03/30 01:01:15;;;;;;;88.25;83.53;;;;;;;11.04;100.00;99099.56;5006648;28;20216;-81
2022/03/30 01:03:43;;;;;;;75.93;71.75;;;;;;;10.94;100.00;99103.25;5010123;28;20224;-81
2022/03/30 01:06:12;;;;;;;62.75;59.25;;;;;;;10.92;100.00;99109.44;5013246;28;20211;-81
2022/03/30 01:08:40;;;;;;;49.05;46.53;;;;;;;10.84;100.00;99118.34;5008698;28;20205;-81
2022/03/30 01:11:10;;;;;;;44.05;41.45;;;10.90;99.90;;;10.87;100.00;99122.72;5014667;28;20211;-81
2022/03/30 01:13:39;;;;;;;76.18;72.25;;;10.90;99.90;;;10.86;100.00;99123.63;5019649;28;20227;-81
2022/03/30 01:16:30;;;;;;;130.93;124.82;;;10.70;99.90;;;10.85;100.00;99119.22;5010043;28;20231;-81
2022/03/30 01:19:04;;;;;;;94.10;89.20;;;11.00;99.90;;;10.84;100.00;99122.78;5014901;28;20215;-80
2022/03/30 01:21:36;;;;;;;68.30;65.32;;;10.80;99.90;;;10.82;100.00;99127.22;5023136;28;20214;-81
2022/03/30 01:24:05;;;;;;;88.72;84.78;;;10.80;99.90;;;10.78;100.00;99118.44;5016496;28;20235;-81
2022/03/30 01:26:34;;;;;;;92.78;88.38;;;;;;;10.74;100.00;99108.78;5013514;28;20211;-80
2022/03/30 01:32:25;;;;;;;84.05;79.75;;;9.80;99.90;;;10.71;100.00;99094.75;5017991;28;20229;-80
2022/03/30 01:34:43;;;;;;;85.68;82.10;;;10.70;99.90;;;10.65;100.00;99123.91;5029670;28;20223;-80
2022/03/30 01:37:14;;;;;;;86.45;81.65;;;10.60;99.90;;;10.52;100.00;99152.25;5015164;28;20208;-81
2022/03/30 01:39:43;;;;;;;70.70;66.82;;;;;;;10.47;100.00;99165.50;5015476;28;20204;-80
2022/03/30 01:42:12;;;;;;;73.40;70.03;;;10.60;99.90;;;10.43;100.00;99169.09;5030034;28;20591;-80
2022/03/30 01:44:40;;;;;;;72.50;67.90;;;;;;;10.42;100.00;99167.34;5015435;28;20232;-80
2022/03/30 01:47:10;;;;;;;66.80;62.42;;;10.40;99.90;;;10.40;100.00;99152.34;5004757;28;20212;-80
2022/03/30 01:49:39;;;;;;;69.97;66.13;;;;;;;10.34;100.00;99148.00;5012347;28;20586;-80
2022/03/30 01:52:07;;;;;;;72.70;68.78;;;;;;;10.35;100.00;99141.84;5022612;28;20211;-80
2022/03/30 01:54:39;;;;;;;47.22;44.60;;;10.40;99.90;;;10.29;100.00;99139.25;5026188;28;20236;-80
2022/03/30 01:57:08;;;;;;;67.07;62.30;;;;;;;10.29;100.00;99144.53;5011028;28;20208;-79
2022/03/30 01:59:36;;;;;;;67.80;64.68;;;;;;;10.24;100.00;99149.00;5006379;28;20244;-80
2022/03/30 02:02:05;;;;;;;76.90;72.95;;;9.90;99.90;;;10.29;100.00;99149.81;5032559;28;20196;-79
2022/03/30 02:04:35;;;;;;;88.32;83.03;;;;;;;10.27;100.00;99159.53;5007113;28;20235;-79
2022/03/30 02:07:06;;;;;;;46.38;43.53;;;10.30;99.90;;;10.25;100.00;99171.88;5019779;28;20208;-79
2022/03/30 02:09:34;;;;;;;57.00;53.28;;;;;;;10.25;100.00;99177.16;5005843;28;20203;-79
2022/03/30 02:12:04;;;;;;;59.83;56.60;;;10.30;99.90;;;10.21;100.00;99178.09;5014693;28;20196;-79
2022/03/30 02:14:33;;;;;;;75.22;70.93;;;;;;;10.23;100.00;99184.22;5015455;28;20236;-79
2022/03/30 02:17:01;;;;;;;91.75;87.00;;;;;;;10.19;100.00;99171.91;5017133;28;20234;-79
2022/03/30 02:19:30;;;;;;;126.88;120.10;;;;;;;10.15;100.00;99173.69;5015663;28;20223;-82
2022/03/30 02:21:58;;;;;;;115.53;110.45;;;;;;;10.16;100.00;99172.81;5019565;28;20563;-79
2022/03/30 02:24:27;;;;;;;146.82;140.07;;;;;;;10.13;100.00;99162.28;5015080;28;20224;-79
2022/03/30 02:26:55;;;;;;;116.95;110.80;;;;;;;10.11;100.00;99152.63;5013974;28;20223;-80
2022/03/30 02:29:24;;;;;;;66.43;63.38;;;;;;;10.08;100.00;99144.72;5029874;28;20226;-79
2022/03/30 02:31:53;;;;;;;64.20;60.95;;;;;;;10.04;100.00;99121.88;5013508;28;20200;-79
2022/03/30 02:34:22;;;;;;;50.25;47.25;;;;;;;9.99;100.00;99129.84;5013078;28;20227;-79
2022/03/30 02:36:50;;;;;;;60.58;56.10;;;;;;;10.03;100.00;99131.56;5014423;28;20239;-79
2022/03/30 02:39:19;;;;;;;75.63;70.93;;;10.00;99.90;;;9.98;100.00;99130.72;5026601;28;20208;-79
2022/03/30 02:41:48;;;;;;;85.93;80.78;;;;;;;9.95;100.00;99123.72;5012289;28;20212;-79
2022/03/30 02:44:16;;;;;;;76.30;72.15;;;;;;;9.94;100.00;99119.31;5012172;28;20228;-79
2022/03/30 02:46:44;;;;;;;75.55;71.32;;;;;;;9.89;100.00;99117.59;5012621;28;20223;-79
2022/03/30 02:49:13;;;;;;;92.13;86.97;;;;;;;9.87;100.00;99117.63;5012397;28;20238;-78
2022/03/30 02:51:41;;;;;;;97.50;92.80;;;;;;;9.80;100.00;99115.94;5012315;28;20208;-79
2022/03/30 02:54:09;;;;;;;62.03;58.40;;;;;;;9.82;100.00;99113.28;5012496;28;20235;-79
2022/03/30 02:56:38;;;;;;;41.38;38.80;;;;;;;9.75;100.00;99101.03;5013320;28;20211;-79
2022/03/30 02:59:37;;;;;;;48.85;45.42;;;9.80;99.90;;;9.75;100.00;99103.66;5018299;22;20201;31
2022/03/30 03:02:06;;;;;;;43.88;40.05;;;;;;;9.74;100.00;99117.75;5043180;28;20230;-80
2022/03/30 03:04:35;;;;;;;28.23;26.48;;;;;;;9.76;100.00;99116.84;5036707;28;20219;-79
2022/03/30 03:07:04;;;;;;;28.38;25.77;;;9.70;99.90;;;9.71;100.00;99118.66;5031918;28;20214;-79
2022/03/30 03:09:32;;;;;;;30.13;26.20;;;;;;;9.58;100.00;99111.72;5027520;28;20571;-79
2022/03/30 03:12:00;;;;;;;19.27;16.45;;;;;;;9.60;100.00;99100.25;5029329;28;20203;-80
2022/03/30 03:14:29;;;;;;;23.05;20.50;;;;;;;9.59;100.00;99095.00;5029933;28;20239;-78
2022/03/30 03:16:57;;;;;;;17.88;15.73;;;;;;;9.54;100.00;99091.53;5017333;28;20219;-78
2022/03/30 03:19:25;;;;;;;20.48;13.68;;;;;;;9.53;100.00;99080.09;5031668;28;20214;-79
2022/03/30 03:21:53;;;;;;;16.05;13.63;;;;;;;9.47;100.00;99074.88;5032435;28;20195;-77
2022/03/30 03:24:22;;;;;;;11.65;10.57;;;;;;;9.46;100.00;99066.97;5074306;28;20234;-76
2022/03/30 03:26:51;;;;;;;12.25;11.05;;;;;;;9.42;100.00;99062.59;5032592;28;20196;-76
2022/03/30 03:29:19;;;;;;;8.93;7.55;;;;;;;9.43;100.00;99062.59;5036860;28;20213;-76
2022/03/30 03:31:47;;;;;;;13.98;6.43;;;;;;;9.38;100.00;99082.84;5037083;28;20206;-76
2022/03/30 03:34:15;;;;;;;11.02;4.70;;;9.40;99.90;;;9.36;100.00;99081.13;5038180;28;20227;-76
2022/03/30 03:36:44;;;;;;;12.75;4.78;;;;;;;9.30;100.00;99079.41;5032174;28;20315;-76
2022/03/30 03:39:11;;;;;;;8.77;5.00;;;9.40;99.90;;;9.32;100.00;99082.91;5031820;28;20210;-76
2022/03/30 03:41:40;;;;;;;10.98;7.10;;;9.20;99.90;;;9.23;100.00;99072.41;5047860;28;20203;-76
2022/03/30 03:44:08;;;;;;;7.47;4.95;;;;;;;9.18;100.00;99076.84;5034525;28;20222;-76
2022/03/30 03:46:36;;;;;;;22.98;7.32;;;9.40;99.90;;;9.23;100.00;99082.97;5036538;28;20206;-76
2022/03/30 03:49:05;;;;;;;18.60;5.80;;;;;;;9.25;100.00;99097.91;5068838;28;20207;-75
2022/03/30 03:51:33;;;;;;;14.13;6.28;;;;;;;9.12;100.00;99090.97;5039128;28;20202;-77
2022/03/30 03:54:01;;;;;;;20.20;7.63;;;;;;;9.08;100.00;99090.97;5032275;28;20234;-76
2022/03/30 03:56:30;;;;;;;16.80;6.53;;;;;;;9.06;100.00;99101.50;5040050;28;20241;-79
2022/03/30 03:58:58;;;;;;;9.73;4.85;;;;;;;8.97;100.00;99097.19;5047943;28;20208;-76
2022/03/30 04:01:27;;;;;;;20.15;8.18;;;;;;;9.00;100.00;99109.47;5030684;28;20215;-76
2022/03/30 04:03:56;;;;;;;12.07;5.65;;;;;;;8.95;100.00;99111.25;5030817;28;20224;-76
2022/03/30 04:06:31;;;;;;;16.73;8.07;;;9.00;99.90;;;8.93;100.00;99110.38;5031956;28;20686;-78
2022/03/30 04:08:59;;;;;;;17.63;9.13;;;;;;;8.91;100.00;99125.34;5033000;28;20218;-76
2022/03/30 04:11:28;;;;;;;12.77;7.68;;;;;;;8.91;100.00;99127.97;5028308;28;20214;-76
2022/03/30 04:13:56;;;;;;;8.55;5.88;;;;;;;8.90;100.00;99142.03;5031771;28;20226;-76
2022/03/30 04:16:25;;;;;;;9.77;6.85;;;;;;;8.99;100.00;99156.03;5030120;28;20238;-77
2022/03/30 04:18:53;;;;;;;10.05;8.27;;;;;;;8.88;100.00;99159.63;5030681;28;20202;-80
2022/03/30 04:21:21;;;;;;;7.10;5.72;;;;;;;8.89;100.00;99167.53;5030999;28;20230;-77
2022/03/30 04:23:50;;;;;;;6.63;5.65;;;;;;;8.87;100.00;99163.13;5032355;28;20227;-75
2022/03/30 04:26:18;;;;;;;20.48;11.10;;;;;;;8.81;100.00;99174.59;5030169;28;20204;-76
2022/03/30 04:28:46;;;;;;;17.45;10.55;;;;;;;8.76;100.00;99176.38;5030226;28;20207;-77
2022/03/30 04:31:14;;;;;;;21.00;16.90;;;;;;;8.78;100.00;99181.63;5030086;28;20199;-75
2022/03/30 04:33:43;;;;;;;18.88;15.02;;;;;;;8.72;100.00;99185.16;5028175;28;20227;-76
2022/03/30 04:36:11;;;;;;;49.40;18.88;;;;;;;8.68;100.00;99191.31;5048319;22;20195;-79
2022/03/30 04:38:39;;;;;;;23.30;21.83;;;;;;;8.64;100.00;99197.50;5030900;28;20214;-79
2022/03/30 04:41:08;;;;;;;15.02;14.15;;;;;;;8.58;100.00;99198.38;5035202;28;20199;-79
2022/03/30 04:43:36;;;;;;;12.60;11.70;;;;;;;8.65;100.00;99205.38;5040434;28;20218;-82
2022/03/30 04:46:05;;;;;;;12.85;12.35;;;;;;;8.68;100.00;99208.91;5020716;28;20200;-84
2022/03/30 04:48:35;;;;;;;15.45;14.55;;;;;;;8.63;100.00;99201.00;5045219;28;20206;-85
2022/03/30 04:51:03;;;;;;;25.80;24.38;;;;;;;8.71;100.00;99216.78;5055514;28;20202;-83
2022/03/30 04:53:32;;;;;;;23.20;22.08;;;;;;;8.63;100.00;99220.31;5039707;28;20223;-84
2022/03/30 04:56:01;;;;;;;47.75;45.45;;;;;;;8.65;100.00;99225.59;5031859;28;20206;-84
2022/03/30 04:58:30;;;;;;;44.83;42.60;;;;;;;8.59;100.00;99223.84;5054140;28;20229;-84
2022/03/30 05:00:58;;;;;;;44.30;42.05;;;;;;;8.70;100.00;99229.09;5050191;28;20206;-82
2022/03/30 05:03:27;;;;;;;21.23;19.48;;;;;;;8.56;100.00;99215.97;5037688;28;20230;-82
2022/03/30 05:05:55;;;;;;;39.15;37.05;;;;;;;8.56;100.00;99220.34;5018568;28;20226;-82
2022/03/30 05:08:29;;;;;;;33.35;31.60;;;;;;;8.56;100.00;99226.50;5018760;28;20577;-82
2022/03/30 05:10:57;;;;;;;37.97;35.42;;;;;;;8.54;100.00;99233.53;5016480;28;20196;-81
2022/03/30 05:13:25;;;;;;;30.75;28.08;;;;;;;8.57;100.00;99244.06;5033316;28;20229;-81
2022/03/30 05:15:54;;;;;;;39.60;33.88;;;;;;;8.61;100.00;99244.94;5043523;28;20203;-80
2022/03/30 05:18:23;;;;;;;33.45;31.13;;;;;;;8.53;100.00;99252.84;5032235;28;20235;-80
2022/03/30 05:20:53;;;;;;;21.10;19.50;;;;;;;8.57;100.00;99265.13;5046349;28;20198;-81
2022/03/30 05:23:22;;;;;;;52.88;50.33;;;;;;;8.58;100.00;99264.25;5048472;28;20572;-81
2022/03/30 05:25:50;;;;;;;33.25;31.67;;;;;;;8.49;100.00;99260.75;5037584;28;20199;-81
2022/03/30 05:28:18;;;;;;;36.92;34.97;;;;;;;8.52;100.00;99273.94;5037119;28;20207;-81
2022/03/30 05:30:47;;;;;;;35.65;32.83;;;;;;;8.49;100.00;99287.09;5035688;28;20207;-80
2022/03/30 05:33:15;;;;;;;66.55;63.03;;;;;;;8.38;100.00;99284.47;5040742;28;20202;-81
2022/03/30 05:35:44;;;;;;;50.90;47.50;;;;;;;8.33;100.00;99292.38;5044457;28;20214;-81
2022/03/30 05:38:12;;;;;;;23.70;21.60;;;;;;;8.30;100.00;99292.34;5035633;28;20235;-80
2022/03/30 05:40:41;;;;;;;21.38;19.33;;;8.30;99.90;;;8.27;100.00;99294.13;5041442;28;20662;-80
2022/03/30 05:43:09;;;;;;;19.00;16.80;;;;;;;8.27;100.00;99308.16;5055769;28;20237;-81
2022/03/30 05:45:38;;;;;;;23.23;21.35;;;;;;;8.26;100.00;99311.66;5055778;28;20210;-81
2022/03/30 05:48:06;;;;;;;25.95;21.85;;;;;;;8.23;100.00;99330.09;5054375;28;20206;-80
2022/03/30 05:50:35;;;;;;;19.27;15.48;;;;;;;8.23;100.00;99326.59;5035643;28;20208;-81
2022/03/30 05:53:03;;;;;;;14.43;12.90;;;8.20;99.90;;;8.28;100.00;99333.63;5037349;28;20214;-81
2022/03/30 05:55:32;;;;;;;9.05;7.80;;;;;;;8.21;100.00;99330.97;5036495;28;20207;-80
2022/03/30 05:58:02;;;;;;;15.88;6.95;;;;;;;8.15;100.00;99328.34;5045711;28;20234;-80
2022/03/30 06:00:31;;;;;;;3.50;2.65;;;;;;;8.26;100.00;99343.28;5056187;28;20217;-80
2022/03/30 06:03:00;;;;;;;13.63;3.95;;;;;;;8.28;100.00;99359.97;5050373;28;20207;-80
2022/03/30 06:05:28;;;;;;;4.80;2.22;;;;;;;8.27;100.00;99349.41;5058460;28;20592;-80
2022/03/30 06:07:59;;;;;;;14.10;3.70;;;;;;;8.28;100.00;99353.81;5052310;28;20199;-80
2022/03/30 06:10:28;;;;;;;13.52;4.45;;;;;;;8.28;100.00;99362.59;5038667;28;20208;-81
2022/03/30 06:12:56;;;;;;;14.57;4.50;;;;;;;8.24;100.00;99367.84;5039210;28;20208;-80
2022/03/30 06:15:26;;;;;;;13.75;5.38;;;8.30;99.90;;;8.16;100.00;99369.59;5023940;28;20234;-81
2022/03/30 06:17:55;;;;;;;14.25;5.15;;;;;;;8.16;100.00;99364.34;5038191;28;20223;-80
2022/03/30 06:20:24;;;;;;;14.38;5.00;;;;;;;8.21;100.00;99378.38;5044378;28;20215;-80
2022/03/30 06:22:54;;;;;;;13.50;4.05;;;8.20;99.90;;;8.15;100.00;99379.25;5036946;28;20218;-81
2022/03/30 06:25:24;;;;;;;14.32;4.45;;;8.10;99.90;;;8.09;100.00;99368.72;5050446;28;20711;-80
2022/03/30 06:27:53;;;;;;;12.85;3.95;;;8.10;99.90;;;8.08;100.00;99380.13;5051422;28;20195;-80
2022/03/30 06:30:21;;;;;;;13.60;3.85;;;;;;;8.03;100.00;99366.06;5041310;28;20218;-80
2022/03/30 06:32:51;;;;;;;14.77;3.85;;;8.00;99.90;;;8.02;100.00;99370.44;5040342;28;20206;-81
2022/03/30 06:35:20;;;;;;;3.92;1.70;;;8.10;99.90;;;8.06;100.00;99375.72;5050173;28;20277;-81
2022/03/30 06:37:48;;;;;;;6.30;2.50;;;;;;;8.00;100.00;99380.09;5048127;28;20219;-84
2022/03/30 06:40:17;;;;;;;4.32;1.73;;;;;;;8.09;100.00;99388.91;5013156;28;20204;-84
2022/03/30 06:42:48;;;;;;;6.05;1.95;;;;;;;8.07;100.00;99390.66;5026296;28;20215;-84
2022/03/30 06:45:16;;;;;;;5.35;1.73;;;;;;;8.06;100.00;99408.19;5025915;28;20223;-83
2022/03/30 06:47:44;;;;;;;5.85;1.40;;;;;;;8.06;100.00;99404.69;5033189;28;20210;-84
2022/03/30 06:50:13;;;;;;;8.05;1.90;;;;;;;8.12;100.00;99421.38;5047200;28;20214;-84
2022/03/30 06:52:42;;;;;;;6.22;1.45;;;;;;;8.07;100.00;99423.13;5057494;28;20207;-82
2022/03/30 06:55:12;;;;;;;7.43;1.70;;;;;;;8.12;100.00;99433.66;5041636;28;20574;-82
2022/03/30 06:57:42;;;;;;;5.32;1.23;;;8.20;99.90;;;8.11;100.00;99429.28;5032891;28;20231;-82
2022/03/30 07:00:14;;;;;;;6.18;1.38;;;8.10;99.90;;;8.05;100.00;99426.63;5043103;28;20214;-82
2022/03/30 07:02:42;;;;;;;14.55;3.03;;;;;;;7.99;100.00;99428.38;5053605;28;20201;-81
2022/03/30 07:05:11;;;;;;;5.18;1.33;;;8.10;99.90;;;8.07;100.00;99435.41;5045392;28;20220;-82
2022/03/30 07:10:27;;;;;;;8.57;2.03;;;8.00;99.90;;;7.92;100.00;99431.84;5044815;28;20207;-82
2022/03/30 07:13:00;;;;;;;7.72;1.77;;;;;;;7.96;100.00;99448.53;5054368;28;20207;-82
2022/03/30 07:15:28;;;;;;;9.40;2.17;;;8.00;99.90;;;7.92;100.00;99444.13;5043303;28;20227;-82
2022/03/30 07:17:59;;;;;;;9.90;2.30;;;8.00;99.90;;;7.93;100.00;99464.31;5036515;28;20219;-81
2022/03/30 07:20:30;;;;;;;3.33;0.95;;;;;;;7.86;100.00;99454.63;5034461;28;20216;-82
2022/03/30 07:22:59;;;;;;;8.40;1.80;;;;;;;7.87;100.00;99464.28;5035475;28;20203;-80
2022/03/30 07:25:29;;;;;;;9.95;2.13;;;7.90;99.90;;;7.77;100.00;99471.22;5033335;28;20231;-81
2022/03/30 07:27:59;;;;;;;9.80;2.38;;;7.90;99.90;;;7.89;100.00;99486.22;5017759;28;20204;-81
2022/03/30 07:30:28;;;;;;;10.40;2.80;;;7.80;99.90;;;7.86;100.00;99491.47;5051137;28;20215;-81
2022/03/30 07:32:58;;;;;;;6.85;2.10;;;7.80;99.90;;;7.62;100.00;99492.19;5037867;28;20225;-81
2022/03/30 07:35:28;;;;;;;8.88;3.50;;;7.90;99.90;;;7.66;100.00;99501.88;5032485;28;20599;-81
2022/03/30 07:37:57;;;;;;;7.25;2.58;;;;;;;7.65;100.00;99519.41;5028757;28;20234;-81
2022/03/30 07:40:27;;;;;;;8.80;3.05;;;7.80;99.90;;;7.56;100.00;99521.09;5026999;28;20561;-81
2022/03/30 07:42:56;;;;;;;10.90;4.07;;;;;;;7.59;100.00;99529.03;5036395;28;20208;-81
2022/03/30 07:45:25;;;;;;;8.93;2.75;;;;;;;7.55;100.00;99527.25;5047224;28;20215;-81
2022/03/30 07:47:54;;;;;;;8.43;2.42;;;;;;;7.48;100.00;99539.47;5030563;28;20212;-80
2022/03/30 07:50:23;;;;;;;13.10;4.03;;;;;;;7.60;100.00;99551.81;5027400;28;20207;-80
2022/03/30 07:52:51;;;;;;;8.82;4.15;;;7.70;99.90;;;7.53;100.00;99558.78;5047802;28;20203;-80
2022/03/30 07:55:20;;;;;;;11.02;5.70;;;7.70;99.90;;;7.62;100.00;99563.25;5034007;28;20593;-79
2022/03/30 07:57:49;;;;;;;6.78;5.32;;;;;;;7.65;100.00;99569.41;5037677;28;20203;-80
2022/03/30 08:00:18;;;;;;;11.82;4.55;;;7.70;99.90;;;7.60;100.00;99576.38;5030144;28;20204;-80
2022/03/30 08:02:47;;;;;;;11.55;4.43;;;7.70;99.90;;;7.59;100.00;99579.00;5042592;28;20199;-80
2022/03/30 08:05:16;;;;;;;10.55;4.03;;;7.60;99.90;;;7.63;100.00;99580.78;5041969;28;20234;-80
2022/03/30 08:07:49;;;;;;;8.30;4.32;;;7.70;99.90;;;7.71;100.00;99600.16;5030092;28;20210;-80
2022/03/30 08:10:18;;;;;;;7.97;5.70;;;;;;;7.70;100.00;99604.53;5025640;28;20215;-81
2022/03/30 08:12:47;;;;;;;11.25;8.70;;;;;;;7.59;100.00;99592.16;5041539;28;20205;-80
2022/03/30 08:15:16;;;;;;;14.52;12.85;;;;;;;7.58;100.00;99599.19;5052078;28;20224;-80
2022/03/30 08:17:44;;;;;;;16.92;15.70;;;;;;;7.60;100.00;99609.72;5044209;28;20195;-80
2022/03/30 08:22:25;;;;;;;12.90;11.75;;;;;;;7.69;100.00;99623.81;5054132;28;20203;-81
2022/03/30 08:23:02;;;;;;;22.10;19.92;;;;;;;7.72;100.00;99634.38;5055351;28;20215;-80
2022/03/30 08:25:31;;;;;;;22.73;21.33;;;;;;;7.59;100.00;99635.16;5040674;28;20231;-81
2022/03/30 08:27:59;;;;;;;21.70;20.02;;;;;;;7.55;100.00;99637.75;5040054;28;20199;-81
2022/03/30 08:30:28;;;;;;;27.20;25.35;;;7.50;99.90;;;7.49;100.00;99632.44;5040710;28;20202;-81
2022/03/30 08:32:56;;;;;;;33.95;31.85;;;;;;;7.55;100.00;99632.47;5032234;28;20195;-81
2022/03/30 08:35:25;;;;;;;50.95;48.30;;;;;;;7.56;100.00;99635.13;5036996;28;20224;-81
2022/03/30 08:37:54;;;;;;;52.85;49.70;;;;;;;7.48;100.00;99626.28;5013804;28;20212;-81
2022/03/30 08:40:23;;;;;;;64.25;59.30;;;7.60;99.90;;;7.52;100.00;99629.81;5024149;28;20211;-81
2022/03/30 08:42:53;;;;;;;45.55;42.75;;;7.60;99.90;;;7.52;100.00;99629.81;5020848;28;20207;-81
2022/03/30 08:45:22;;;;;;;31.02;28.95;;;;;;;7.61;100.00;99641.31;5030580;28;20223;-81
2022/03/30 08:47:50;;;;;;;27.20;22.73;;;;;;;7.50;100.00;99629.81;5028632;28;20203;-81
2022/03/30 08:50:19;;;;;;;19.13;15.88;;;;;;;7.61;100.00;99638.66;5020515;28;20207;-81
2022/03/30 08:52:49;;;;;;;11.85;8.77;;;;;;;7.64;100.00;99643.97;5028630;28;20202;-81
2022/03/30 08:55:18;;;;;;;21.63;19.15;;;;;;;7.67;100.00;99649.25;5023275;28;20224;-81
2022/03/30 08:57:47;;;;;;;27.02;20.50;;;;;;;7.61;100.00;99643.06;5028690;28;20195;-81
2022/03/30 09:00:21;;;;;;;6.45;1.95;;;7.70;99.90;;;7.57;100.00;99643.91;5029081;28;20234;-81
2022/03/30 09:03:00;;;;;;;7.80;3.60;;;7.60;99.90;;;7.52;100.00;99643.84;5060032;28;20201;-81
2022/03/30 09:05:33;;;;;;;12.43;11.40;;;7.50;99.90;;;7.50;100.00;99639.44;5055486;28;20226;-82
2022/03/30 09:08:09;;;;;;;30.17;28.05;;;7.60;99.90;;;7.52;100.00;99642.97;5034547;28;20195;-82
2022/03/30 09:10:40;;;;;;;41.45;25.85;;;7.50;99.90;;;7.47;100.00;99642.06;5031166;28;20210;-83
2022/03/30 09:13:09;;;;;;;17.42;15.90;;;;;;;7.56;100.00;99650.91;5029494;28;20211;-83
2022/03/30 09:15:39;;;;;;;6.65;5.90;;;;;;;7.55;100.00;99653.53;5039260;28;20209;-83
2022/03/30 09:18:14;;;;;;;13.68;5.57;;;7.50;99.90;;;7.45;100.00;99641.16;5052614;28;20210;-82
2022/03/30 09:20:57;;;;;;;17.77;5.53;;;7.50;99.90;;;7.45;100.00;99642.03;5024313;28;20207;-81
2022/03/30 09:23:26;;;;;;;2.47;1.10;;;7.50;99.90;;;7.60;100.00;99660.59;5047036;28;20237;-82
2022/03/30 09:25:57;;;;;;;13.05;3.10;;;;;;;7.62;100.00;99665.88;5033924;28;20211;-81
2022/03/30 09:28:25;;;;;;;8.23;1.90;;;;;;;7.62;100.00;99668.50;5044592;28;20199;-82
2022/03/30 09:30:53;;;;;;;11.95;2.90;;;;;;;7.47;100.00;99657.84;5033860;28;20198;-81
2022/03/30 09:33:23;;;;;;;16.85;3.65;;;7.60;99.90;;;7.56;100.00;99666.69;5030944;28;20207;-82
2022/03/30 09:35:52;;;;;;;14.55;4.35;;;;;;;7.60;100.00;99668.47;5038110;28;20203;-82
2022/03/30 09:38:22;;;;;;;5.65;1.77;;;7.60;99.90;;;7.54;100.00;99672.81;5033308;28;20204;-81
2022/03/30 09:41:01;;;;;;;8.27;2.47;;;7.80;99.90;;;7.66;100.00;99681.69;5035327;28;20199;-81
2022/03/30 09:43:34;;;;;;;8.32;2.78;;;7.70;99.90;;;7.63;100.00;99683.41;5034033;28;20722;-81
2022/03/30 09:46:13;;;;;;;9.60;2.58;;;7.60;99.90;;;7.53;100.00;99668.41;5035597;28;20213;-81
2022/03/30 09:48:52;;;;;;;11.57;2.67;;;7.60;99.90;;;7.59;100.00;99679.00;5034301;28;20203;-81
2022/03/30 09:51:29;;;;;;;12.75;2.97;;;7.60;99.90;;;7.65;100.00;99682.56;5037395;28;20202;-80
2022/03/30 09:53:58;;;;;;;20.05;4.57;;;;;;;7.64;100.00;99677.28;5037995;28;20219;-81
2022/03/30 09:56:28;;;;;;;14.90;3.38;;;;;;;7.70;100.00;99679.97;5035283;28;20199;-82
2022/03/30 09:59:05;;;;;;;25.10;5.70;;;7.70;99.90;;;7.72;100.00;99681.75;5036097;28;20230;-81
2022/03/30 10:01:34;;;;;;;15.63;3.53;;;;;;;7.80;100.00;99681.84;5033822;28;20215;-81
2022/03/30 10:04:08;;;;;;;13.35;3.08;;;7.90;99.90;;;7.89;100.00;99681.91;5041119;28;20230;-82
2022/03/30 10:06:40;;;;;;;15.73;3.33;;;7.80;99.90;;;7.84;100.00;99675.72;5037877;28;20233;-82
2022/03/30 10:09:16;;;;;;;9.75;2.45;;;7.80;99.90;;;7.78;100.00;99651.06;5031159;28;20605;-82
2022/03/30 10:11:45;;;;;;;12.80;3.35;;;;;;;7.83;100.00;99652.91;5054647;28;20207;-82
2022/03/30 10:14:14;;;;;;;11.63;2.88;;;;;;;7.89;100.00;99652.94;5029590;28;20219;-81
2022/03/30 10:16:44;;;;;;;24.80;5.25;;;8.20;99.90;;;8.03;100.00;99645.16;5033132;28;20203;-82
2022/03/30 10:19:13;;;;;;;16.10;3.42;;;;;;;8.07;100.00;99643.41;5009800;28;20242;-82
2022/03/30 10:21:49;;;;;;;16.27;4.40;;;8.00;99.90;;;8.00;100.00;99624.94;5039578;28;20199;-82
2022/03/30 10:24:22;;;;;;;16.70;4.10;;;;;;;8.09;100.00;99623.25;5027366;28;20230;-82
2022/03/30 10:27:04;;;;;;;15.18;3.63;;;8.10;99.90;;;8.22;100.00;99630.34;5039220;28;20206;-82
2022/03/30 10:29:33;;;;;;;14.82;3.20;;;;;;;8.23;100.00;99622.44;5035755;28;20212;-82
2022/03/30 10:32:22;;;;;;;12.60;3.15;;;8.30;99.90;;;8.30;100.00;99611.06;5038395;28;20196;-82
2022/03/30 10:34:54;;;;;;;14.88;3.58;;;8.40;99.90;;;8.41;100.00;99610.28;5016638;28;20219;-82
2022/03/30 10:37:29;;;;;;;25.08;5.10;;;8.30;99.90;;;8.38;100.00;99591.81;5027492;28;20238;-82
2022/03/30 10:40:10;;;;;;;15.80;4.28;;;8.40;99.90;;;8.42;100.00;99585.69;5021605;28;20227;-83
2022/03/30 10:42:48;;;;;;;15.05;4.03;;;8.40;99.90;;;8.30;100.00;99558.38;5041186;28;20207;-83
2022/03/30 10:45:28;;;;;;;16.67;4.13;;;8.40;99.90;;;8.42;100.00;99554.06;5051058;28;20227;-82
2022/03/30 10:48:19;;;;;;;16.65;4.30;;;8.50;99.90;;;8.59;100.00;99547.97;5033452;28;20290;-82
2022/03/30 10:50:54;;;;;;;23.73;7.05;;;8.60;99.90;;;8.78;100.00;99556.81;5035788;28;20195;-82
2022/03/30 10:53:46;;;;;;;19.52;12.60;;;8.80;99.90;;;8.81;100.00;99562.09;5033519;28;20200;-84
2022/03/30 10:56:18;;;;;;;16.65;4.93;;;8.90;99.90;;;8.98;100.00;99559.47;5030619;28;20215;-85
2022/03/30 10:59:00;;;;;;;9.35;4.03;;;9.00;99.90;;;8.85;100.00;99540.13;5024757;28;20211;-85
2022/03/30 11:01:34;;;;;;;6.03;2.15;;;9.00;99.90;;;9.00;100.00;99526.09;5030671;28;20207;-83
2022/03/30 11:04:16;;;;;;;16.30;4.78;;;9.00;99.90;;;8.86;100.00;99507.63;5028187;28;20227;-83
2022/03/30 11:06:54;;;;;;;7.13;2.97;;;9.20;99.90;;;9.17;100.00;99527.00;5027251;28;20195;-84
2022/03/30 11:09:28;;;;;;;6.70;2.75;;;9.10;99.90;;;9.20;100.00;99524.38;5013500;28;20203;-85
2022/03/30 11:12:05;;;;;;;6.93;3.90;;;9.00;99.90;;;9.35;100.00;99520.84;5013379;28;20203;-85
2022/03/30 11:14:46;;;;;;;18.92;6.90;;;9.30;99.90;;;9.26;100.00;99492.72;5015578;28;20227;-84